a
b
c
d

Рынок наличной валюты

EUR/RUB Москва
В данном разделе сайта представлен курс обмена доллара в Москве на текущий день. Статистические данные взяты из открытых источников. Для того, чтобы удостовериться в актуальности представленных сведений обмена USD/RUB в Москве на конкретный момент времени, свяжитесь с представителями банка по указанному в карточке телефону. Для просмотра номера телефона и других сведений о банке достаточно кликнуть на его название в общей таблице. Рынок наличной валюты достаточно подвижен, поэтому данные о курсе обмена доллара и рубля постоянно обновляются. В разделе "Рынок наличной валюты" Вы сможете изучить курс покупки-продажи для разных банков и выбрать наиболее выгодный вариант обмена валюты.


Показать полностью

Обмен Евро и Российских рублей в Москве


Название банка Покупка Продажа Сумма Комм. Время
КБ "ЭНЕРГОТРАНСБАНК" (ОАО) 75,2 77,4 1 Нет 07.09.2015
ООО ИКБ "ЛОГОС" оквку "Пушечная" 75,75 77,4 35000 Нет 07.09.2015
ООО КБ "Межтрастбанк" оквку "Юго-Западная" 76,2 77,4 10000 Нет 05.09.2015
ОАО "НДБ" ДО "На Волоколамке" 75,3 77,3 1 Нет 07.09.2015
АКБ "Ланта-Банк" (ЗАО) ДО "Котельнический" 75,3 77,3 1 Нет 07.09.2015
ОАО "АИКБ "Татфондбанк" Филиал "Московский" ДО 75 77,3 1 Нет 07.09.2015
ООО КБ "ФПК" оквку № 21 "Рижская" 75,601 77,299 30000 Нет 06.09.2015
АО "НС Банк" ДО "Котельники" 73,95 77,25 1 Нет 07.09.2015
АО "НБК-Банк" 70,59 77,25 1.0 нет 06 апр.
ОАО "АК БАРС" БАНК ДО "Фили" 74,95 77,21 1 Нет 07.09.2015
ОАО "АК БАРС" БАНК Московский филиал 74,95 77,21 1 Нет 07.09.2015
АО "НС Банк" ДО "Котельники" 73,99 77,21 10000 Нет 07.09.2015
ОАО "АК БАРС" БАНК ДО №4 "Ленинградский" 74,95 77,21 1 Нет 07.09.2015
АО "Арксбанк" 75,2 77,2 1 Нет 07.09.2015
КБ "МФБанк" ООО ДО "Павелецкая" 75,5 77,2 10000 Нет 07.09.2015
АО "Арксбанк" ОО "Академический" 75,2 77,2 1 Нет 07.09.2015
ПАО АГРОИНКОМБАНК оквку "м. Сухаревская, ул. Сретенка, д. 36" 76,4099 77,2 50000 Нет 21.08.2015
АО "Арксбанк" ДО "Тверской" 75,2 77,2 1 Нет 07.09.2015
АО "Арксбанк" ОО "Московский" 75,2 77,2 1 Нет 07.09.2015
АО "Арксбанк" ОО "На улице Зорге" 75,2 77,2 1 Нет 07.09.2015
АО "Арксбанк" ОО "На Ленинградском проспекте" 75,2 77,2 1 Нет 07.09.2015
ПАО АГРОИНКОМБАНК оквку "м. Сухаревская, ул. Сретенка, д. 36" 76,4099 77,2 10000 Нет 21.08.2015
АО "Арксбанк" ОО "Арбатский" 75,2 77,2 1 Нет 07.09.2015
КБ "МФБанк" ООО ДО "Красногорск" 75,5 77,2 20000 Нет 07.09.2015
КБ "ЭНЕРГОТРАНСБАНК" (ОАО) 75,4 77,2 10000 Нет 07.09.2015
ООО РИТ-БАНК ДО "Рынок Одинцовское подворье" г. Одинцово, Привокзальная площадь, д. 7 76,7 77,2 100 Нет 21.08.2015
КБ "ДС-Банк" (ООО) оквку № 4 75,2 77,2 5 Нет 07.09.2015
ОАО МАБ "Темпбанк" ул. Крутицкий вал 75,4 77,2 1 Нет 07.09.2015
АО "НС Банк" ДО "Юго-Западный" 74 77,2 1 Нет 05.09.2015
АО "НС Банк" ДО "На Курской" 74 77,2 1 Нет 07.09.2015
АО "Арксбанк" ОО "Серпуховской" 75,2 77,2 1 Нет 07.09.2015
КБ "МФБанк" ООО ДО "Павелецкая" 75,5 77,2 5 Нет 07.09.2015
АО "НС Банк" ДО "Котельники" 74,01 77,19 20000 Нет 07.09.2015
АО "НС Банк" ДО "Юго-Западный" 74,02 77,18 10000 Нет 05.09.2015
АО "НС Банк" ДО "Юго-Западный" 74,03 77,17 20000 Нет 05.09.2015
ООО КБ "Ренессанс" оквку "Земляной вал-12/7" 76,5111 77,1299 30000 Нет 21.08.2015
АКБ "Фора-Банк" (АО) ДО "Юго-западный" 75,65 77,1 1 Нет 07.09.2015
АО КБ "Златкомбанк" ОО "Сокол" 75,7 77,1 1 Нет 07.09.2015
АКБ "Фора-Банк" (АО) ДО "Юго-западный" 75,65 77,1 10000 Нет 07.09.2015
АКБ "Фора-Банк" (АО) ДО "Юго-западный" 75,65 77,1 50000 Нет 07.09.2015
ООО КБ "ЯР-Банк" ул. Донская 75,18 77,06 1 Нет 07.09.2015
ООО КБ "ЯР-Банк" ул. Донская 75,18 77,06 10000 Нет 07.09.2015
ООО КБ "ЯР-Банк" ул. Донская 75,18 77,06 100000 Нет 07.09.2015
НКО "Континент Финанс" (ПАО) оквку № 4 "Кузьминки" 75,65 77,05 15000 Нет 07.09.2015
НКО "Континент Финанс" (ПАО) оквку № 5 "Кузьминки 2" 75,35 77 1000 Нет 07.09.2015
НКО "Континент Финанс" (ПАО) оквку № 4 "Кузьминки" 75,6 77 5000 Нет 07.09.2015
ООО КБ "Ренессанс" оквку "м. Таганская (кольцевая), ул. Верхняя Радищевская, д. 22" 76 77 20000 Нет 07.09.2015
ОАО КБ "ЮНИСТРИМ" оквку № 243 75 77 55000 Нет 20.08.2015
ОАО КБ "ЮНИСТРИМ" оквку № 221 76 77 20000 Нет 07.09.2015
ОАО БАНК "МОСКВА-СИТИ" ДО "ПОКРОВКА" 74 77 1 Нет 04.09.2015
Directrix.ru - тысячи вакансий от прямых работодателей и кадровых агентств. Найди работу в своем городе!

Погода сейчас

+25°C
В основном солнечно, влажность 60%
Москва